createdAt,value
2018-05-05T04:11:21.237Z,364
2018-05-05T04:18:03.030Z,428
2018-05-05T04:24:13.249Z,480
2018-05-05T04:31:46.060Z,536
2018-05-05T04:32:06.248Z,540
2018-05-05T04:38:46.917Z,584
2018-05-05T04:43:43.970Z,616
2018-05-05T04:46:12.582Z,632
2018-05-05T04:46:32.937Z,632
2018-05-05T04:49:04.092Z,644
2018-05-05T04:49:24.233Z,648
2018-05-05T04:52:59.355Z,668
2018-05-05T04:53:20.043Z,668
2018-05-05T04:55:34.083Z,680
2018-05-05T04:57:00.829Z,688
2018-05-05T04:58:33.634Z,696
2018-05-05T04:58:53.776Z,696
2018-05-05T05:01:02.255Z,712
2018-05-05T05:01:22.489Z,712
2018-05-05T05:01:42.668Z,712
2018-05-05T05:04:24.711Z,728
2018-05-05T05:04:44.879Z,728
2018-05-05T05:05:06.283Z,728
2018-05-05T05:05:27.622Z,732
2018-05-05T05:05:47.788Z,728
2018-05-05T05:06:07.957Z,732
2018-05-05T05:06:28.140Z,736
2018-05-05T05:06:48.315Z,736
2018-05-05T05:07:09.137Z,732
2018-05-05T05:07:29.336Z,736
2018-05-05T05:07:49.993Z,736
2018-05-05T05:08:10.923Z,736
2018-05-05T05:08:31.089Z,740
2018-05-05T05:08:51.273Z,744
2018-05-05T05:09:13.072Z,744
2018-05-05T05:09:33.243Z,748
2018-05-05T05:09:54.078Z,748
2018-05-05T05:10:15.171Z,748
2018-05-05T05:10:36.171Z,752
2018-05-05T05:10:56.325Z,752
2018-05-05T05:11:16.509Z,756
2018-05-05T05:11:37.479Z,756
2018-05-05T05:11:57.658Z,756
2018-05-05T05:12:17.821Z,756
2018-05-05T05:12:38.001Z,756
2018-05-05T05:12:58.175Z,760
2018-05-05T05:13:18.397Z,764
2018-05-05T05:13:38.619Z,764
2018-05-05T05:13:58.782Z,764
2018-05-05T05:14:19.572Z,764
2018-05-05T05:14:40.361Z,772
2018-05-05T05:15:01.104Z,772
2018-05-05T05:15:22.615Z,776
2018-05-05T05:15:42.856Z,776
2018-05-05T05:16:03.042Z,776
2018-05-05T05:16:23.906Z,776
2018-05-05T05:16:44.176Z,776
2018-05-05T05:17:04.353Z,780
2018-05-05T05:17:24.520Z,780
2018-05-05T05:17:44.733Z,780
2018-05-05T05:18:04.955Z,784
2018-05-05T05:18:25.892Z,784
2018-05-05T05:18:46.068Z,784
2018-05-05T05:19:06.247Z,788
2018-05-05T05:19:26.923Z,784
2018-05-05T05:19:47.090Z,788
2018-05-05T05:20:08.053Z,784
2018-05-05T05:20:28.250Z,788
2018-05-05T05:20:48.421Z,792
2018-05-05T05:21:08.602Z,792
2018-05-05T05:21:28.816Z,792
2018-05-05T05:21:50.679Z,796
2018-05-05T05:22:11.553Z,796
2018-05-05T05:22:31.754Z,796
2018-05-05T05:22:51.930Z,800
2018-05-05T05:23:12.628Z,800
2018-05-05T05:23:32.851Z,804
2018-05-05T05:23:53.032Z,804
2018-05-05T05:24:13.192Z,808
2018-05-05T05:24:33.915Z,804
2018-05-05T05:24:54.100Z,804
2018-05-05T05:25:14.293Z,804
2018-05-05T05:25:34.484Z,804
2018-05-05T05:25:54.645Z,804
2018-05-05T05:26:14.898Z,804
2018-05-05T05:26:35.174Z,804
2018-05-05T05:26:55.436Z,800
2018-05-05T05:27:15.720Z,804
2018-05-05T05:27:35.953Z,804
2018-05-05T05:27:56.184Z,804
2018-05-05T05:28:16.427Z,804
2018-05-05T05:28:37.857Z,804
2018-05-05T05:28:58.102Z,804
2018-05-05T05:29:18.315Z,804
2018-05-05T05:29:38.599Z,804
2018-05-05T05:29:58.788Z,808
2018-05-05T05:30:19.082Z,808
2018-05-05T05:30:40.018Z,812
2018-05-05T05:31:01.132Z,812
2018-05-05T05:31:21.331Z,812
2018-05-05T05:31:41.588Z,812
2018-05-05T05:32:01.809Z,816
2018-05-05T05:32:22.008Z,816
2018-05-05T05:32:43.014Z,820
2018-05-05T05:33:04.069Z,820
2018-05-05T05:33:24.289Z,820
2018-05-05T05:33:44.653Z,824
2018-05-05T05:34:05.004Z,820
2018-05-05T05:34:25.205Z,824
2018-05-05T05:34:46.096Z,824
2018-05-05T05:35:06.370Z,824
2018-05-05T05:35:26.577Z,824
2018-05-05T05:35:46.732Z,824
2018-05-05T05:36:07.443Z,828
2018-05-05T05:36:27.715Z,832
2018-05-05T05:36:47.896Z,828
2018-05-05T05:37:08.948Z,832
2018-05-05T05:37:29.251Z,832
2018-05-05T05:37:49.477Z,832
2018-05-05T05:38:09.680Z,832
2018-05-05T05:38:29.855Z,832
2018-05-05T05:38:50.050Z,832
2018-05-05T05:39:10.228Z,832
2018-05-05T05:39:30.510Z,832
2018-05-05T05:39:50.680Z,836
2018-05-05T05:40:10.875Z,836
2018-05-05T05:40:31.170Z,836
2018-05-05T05:40:51.335Z,836
2018-05-05T05:41:11.501Z,840
2018-05-05T05:41:31.665Z,840
2018-05-05T05:41:51.901Z,840
2018-05-05T05:42:12.181Z,844
2018-05-05T05:42:32.365Z,844
2018-05-05T05:42:52.597Z,844
2018-05-05T05:43:12.817Z,848
2018-05-05T05:43:33.002Z,844
2018-05-05T05:43:53.178Z,848
2018-05-05T05:44:13.953Z,844
2018-05-05T05:44:34.355Z,844
2018-05-05T05:44:54.616Z,848
2018-05-05T05:45:14.868Z,848
2018-05-05T05:45:35.267Z,848
2018-05-05T05:45:56.091Z,852
2018-05-05T05:46:17.103Z,852
2018-05-05T05:46:37.390Z,852
2018-05-05T05:46:57.552Z,852
2018-05-05T05:47:17.746Z,852
2018-05-05T05:47:37.960Z,852
2018-05-05T05:47:58.172Z,856
2018-05-05T05:48:18.634Z,856
2018-05-05T05:48:38.838Z,856
2018-05-05T05:49:00.014Z,860
2018-05-05T05:49:20.177Z,860
2018-05-05T05:49:40.966Z,864
2018-05-05T05:50:01.942Z,864
2018-05-05T05:50:22.141Z,864
2018-05-05T05:50:43.194Z,868
2018-05-05T05:51:03.346Z,868
2018-05-05T05:51:24.021Z,868
2018-05-05T05:51:44.230Z,868
2018-05-05T05:52:04.517Z,868
2018-05-05T05:52:28.541Z,872
2018-05-05T05:52:48.801Z,876
2018-05-05T05:53:09.023Z,872
2018-05-05T05:53:29.964Z,876
2018-05-05T05:53:51.101Z,876
2018-05-05T05:54:11.286Z,876
2018-05-05T05:54:31.534Z,876
2018-05-05T05:54:51.700Z,880
2018-05-05T05:55:11.856Z,880
2018-05-05T05:55:32.112Z,880
2018-05-05T05:55:53.123Z,880
2018-05-05T05:56:13.302Z,884
2018-05-05T05:56:33.484Z,884
2018-05-05T05:56:53.636Z,880
2018-05-05T05:57:13.789Z,884
2018-05-05T05:57:33.999Z,884
2018-05-05T05:57:54.186Z,884
2018-05-05T05:58:14.357Z,884
2018-05-05T05:58:34.541Z,888
2018-05-05T05:58:54.714Z,888
2018-05-05T05:59:14.888Z,888
2018-05-05T05:59:35.055Z,888
2018-05-05T05:59:56.331Z,888
2018-05-05T06:00:16.531Z,888
2018-05-05T06:00:38.631Z,888
2018-05-05T06:00:58.824Z,888
2018-05-05T06:01:18.998Z,892
2018-05-05T06:01:39.170Z,888
2018-05-05T06:01:59.441Z,888
2018-05-05T06:02:19.590Z,888
2018-05-05T06:02:39.763Z,892
2018-05-05T06:03:00.587Z,892
2018-05-05T06:03:21.631Z,892
2018-05-05T06:03:41.878Z,896
2018-05-05T06:04:03.129Z,892
2018-05-05T06:04:23.295Z,896
2018-05-05T06:04:43.454Z,896
2018-05-05T06:05:03.676Z,896
2018-05-05T06:05:23.927Z,896
2018-05-05T06:05:44.595Z,896
2018-05-05T06:06:04.756Z,896
2018-05-05T06:06:24.933Z,896
2018-05-05T06:06:45.987Z,896
2018-05-05T06:07:06.198Z,896
2018-05-05T06:07:26.355Z,896
2018-05-05T06:07:46.520Z,896
2018-05-05T06:08:06.760Z,896
2018-05-05T06:08:26.925Z,900
2018-05-05T06:08:48.602Z,900
2018-05-05T06:09:10.072Z,896
2018-05-05T06:09:30.276Z,900
2018-05-05T06:09:51.132Z,900
2018-05-05T06:10:11.356Z,900
2018-05-05T06:10:31.535Z,904
2018-05-05T06:10:51.725Z,904
2018-05-05T06:11:13.097Z,904
2018-05-05T06:11:33.279Z,904
2018-05-05T06:11:53.475Z,904
2018-05-05T06:12:14.653Z,904
2018-05-05T06:12:35.540Z,904
2018-05-05T06:12:56.208Z,904
2018-05-05T06:13:16.378Z,908
2018-05-05T06:13:36.615Z,904
2018-05-05T06:13:56.856Z,908
2018-05-05T06:14:17.058Z,908
2018-05-05T06:14:37.254Z,908
2018-05-05T06:14:58.114Z,908
2018-05-05T06:15:18.952Z,908
2018-05-05T06:15:39.118Z,912
2018-05-05T06:15:59.361Z,908
2018-05-05T06:16:19.582Z,912
2018-05-05T06:16:39.764Z,912
2018-05-05T06:17:00.639Z,912
2018-05-05T06:17:21.610Z,912
2018-05-05T06:17:41.781Z,912
2018-05-05T06:18:02.010Z,912
2018-05-05T06:18:22.237Z,912
2018-05-05T06:18:42.454Z,916
2018-05-05T06:19:02.660Z,916
2018-05-05T06:19:23.616Z,912
2018-05-05T06:19:44.664Z,916
2018-05-05T06:20:04.833Z,916
2018-05-05T06:20:25.538Z,916
2018-05-05T06:20:47.136Z,916
2018-05-05T06:21:08.139Z,916
2018-05-05T06:21:28.335Z,916
2018-05-05T06:21:48.548Z,920
2018-05-05T06:22:09.999Z,916
2018-05-05T06:22:30.190Z,920
2018-05-05T06:22:50.375Z,920
2018-05-05T06:23:10.553Z,920
2018-05-05T06:23:30.737Z,920
2018-05-05T06:23:51.613Z,920
2018-05-05T06:24:12.544Z,920
2018-05-05T06:24:32.679Z,920
2018-05-05T06:24:52.854Z,920
2018-05-05T06:25:13.522Z,924
2018-05-05T06:25:33.862Z,920
2018-05-05T06:25:54.670Z,920
2018-05-05T06:26:15.122Z,924
2018-05-05T06:26:38.530Z,924
2018-05-05T06:26:59.053Z,924
2018-05-05T06:27:19.506Z,924
2018-05-05T06:27:40.174Z,924
2018-05-05T06:28:01.093Z,928
2018-05-05T06:28:21.312Z,924
2018-05-05T06:28:42.319Z,928
2018-05-05T06:29:02.629Z,928
2018-05-05T06:29:22.864Z,928
2018-05-05T06:29:45.202Z,928
2018-05-05T06:30:05.673Z,928
2018-05-05T06:30:25.961Z,932
2018-05-05T06:30:47.220Z,932
2018-05-05T06:31:07.374Z,932
2018-05-05T06:31:27.708Z,932
2018-05-05T06:31:47.864Z,932
2018-05-05T06:32:08.072Z,932
2018-05-05T06:32:30.172Z,932
2018-05-05T06:32:50.688Z,932
2018-05-05T06:33:10.916Z,936
2018-05-05T06:33:32.407Z,932
2018-05-05T06:33:52.572Z,932
2018-05-05T06:34:13.617Z,932
2018-05-05T06:34:33.901Z,932
2018-05-05T06:34:54.081Z,932
2018-05-05T06:35:14.249Z,936
2018-05-05T06:35:34.410Z,936
2018-05-05T06:35:54.601Z,936
2018-05-05T06:36:15.635Z,936
2018-05-05T06:36:35.827Z,936
2018-05-05T06:36:56.006Z,936
2018-05-05T06:37:16.208Z,940
2018-05-05T06:37:36.384Z,940
2018-05-05T06:37:57.231Z,940
2018-05-05T06:38:18.026Z,940
2018-05-05T06:38:38.278Z,940
2018-05-05T06:38:58.457Z,940
2018-05-05T06:39:18.634Z,940
2018-05-05T06:39:38.830Z,940
2018-05-05T06:39:59.011Z,940
2018-05-05T06:40:19.977Z,940
2018-05-05T06:40:40.164Z,944
2018-05-05T06:41:01.436Z,940
2018-05-05T06:41:21.631Z,940
2018-05-05T06:41:42.634Z,940
2018-05-05T06:42:02.819Z,940
2018-05-05T06:42:23.020Z,944
2018-05-05T06:42:43.200Z,940
2018-05-05T06:43:03.401Z,940
2018-05-05T06:43:23.641Z,944
2018-05-05T06:43:43.817Z,944
2018-05-05T06:44:04.019Z,944
2018-05-05T06:44:24.202Z,944
2018-05-05T06:44:44.384Z,944
2018-05-05T06:45:04.587Z,944
2018-05-05T06:45:24.783Z,940
2018-05-05T06:45:44.955Z,944
2018-05-05T06:46:05.165Z,944
2018-05-05T06:46:25.336Z,944
2018-05-05T06:46:46.472Z,944
2018-05-05T06:47:06.725Z,944
2018-05-05T06:47:26.908Z,944
2018-05-05T06:47:47.123Z,944
2018-05-05T06:48:08.134Z,944
2018-05-05T06:48:29.125Z,944
2018-05-05T06:48:49.305Z,948
2018-05-05T06:49:09.515Z,948
2018-05-05T06:49:30.644Z,948
2018-05-05T06:49:50.829Z,948
2018-05-05T06:50:12.218Z,948
2018-05-05T06:50:32.394Z,948
2018-05-05T06:50:52.575Z,948
2018-05-05T06:51:12.750Z,952
2018-05-05T06:51:34.278Z,952
2018-05-05T06:51:55.494Z,952
2018-05-05T06:52:15.741Z,948
2018-05-05T06:52:35.930Z,952
2018-05-05T06:52:56.377Z,952
2018-05-05T06:53:17.470Z,952
2018-05-05T06:53:37.694Z,952
2018-05-05T06:53:57.871Z,952
2018-05-05T06:54:18.068Z,952
2018-05-05T06:54:38.244Z,956
2018-05-05T06:54:58.414Z,956
2018-05-05T06:55:18.611Z,952
2018-05-05T06:55:38.825Z,952
2018-05-05T06:55:59.035Z,956
2018-05-05T06:56:20.005Z,956
2018-05-05T06:56:40.728Z,956
2018-05-05T06:57:00.987Z,956
2018-05-05T06:57:21.676Z,956
2018-05-05T06:57:43.219Z,960
2018-05-05T06:58:03.395Z,960
2018-05-05T06:58:23.603Z,960
2018-05-05T06:58:43.783Z,960
2018-05-05T06:59:03.978Z,956
2018-05-05T06:59:24.189Z,956
2018-05-05T06:59:44.387Z,956
2018-05-05T07:00:05.616Z,956
2018-05-05T07:00:25.830Z,956
2018-05-05T07:00:46.041Z,956
2018-05-05T07:01:07.131Z,956
2018-05-05T07:01:27.302Z,956
2018-05-05T07:01:47.476Z,952
2018-05-05T07:02:08.187Z,956
2018-05-05T07:02:28.387Z,956
2018-05-05T07:02:49.190Z,956
2018-05-05T07:03:10.014Z,956
2018-05-05T07:03:30.515Z,956
2018-05-05T07:03:51.652Z,956
2018-05-05T07:04:12.698Z,956
2018-05-05T07:04:33.065Z,956
2018-05-05T07:04:53.207Z,960
2018-05-05T07:05:14.004Z,956
2018-05-05T07:05:34.983Z,956
2018-05-05T07:05:55.150Z,960
2018-05-05T07:06:16.156Z,960
2018-05-05T07:06:36.997Z,960
2018-05-05T07:06:57.184Z,960
2018-05-05T07:07:17.373Z,960
2018-05-05T07:07:38.659Z,960
2018-05-05T07:07:58.906Z,960
2018-05-05T07:08:19.074Z,960
2018-05-05T07:08:39.263Z,960
2018-05-05T07:08:59.434Z,960
2018-05-05T07:09:19.658Z,956
2018-05-05T07:09:40.699Z,960
2018-05-05T07:10:00.875Z,960
2018-05-05T07:10:21.059Z,960
2018-05-05T07:10:41.278Z,960
2018-05-05T07:11:01.478Z,960
2018-05-05T07:11:21.662Z,960
2018-05-05T07:11:42.664Z,964
2018-05-05T07:12:02.864Z,960
2018-05-05T07:12:23.633Z,960
2018-05-05T07:12:43.819Z,960
2018-05-05T07:13:04.020Z,960
2018-05-05T07:13:24.184Z,964
2018-05-05T07:13:44.420Z,964
2018-05-05T07:14:05.508Z,964
2018-05-05T07:14:26.608Z,968
2018-05-05T07:14:46.787Z,964
2018-05-05T07:15:06.985Z,968
2018-05-05T07:15:27.280Z,968
2018-05-05T07:15:47.380Z,964
2018-05-05T07:16:07.582Z,968
2018-05-05T07:16:28.484Z,968
2018-05-05T07:16:49.538Z,964
2018-05-05T07:17:09.741Z,968
2018-05-05T07:17:29.964Z,968
2018-05-05T07:17:50.768Z,968
2018-05-05T07:18:10.941Z,968
2018-05-05T07:18:31.125Z,968
2018-05-05T07:18:51.308Z,968
2018-05-05T07:19:12.184Z,968
2018-05-05T07:19:32.340Z,968
2018-05-05T07:19:52.545Z,968
2018-05-05T07:20:13.506Z,968
2018-05-05T07:20:34.532Z,968
2018-05-05T07:20:54.738Z,968
2018-05-05T07:21:14.920Z,968
2018-05-05T07:21:35.686Z,968
2018-05-05T07:21:55.862Z,968
2018-05-05T07:22:16.088Z,968
2018-05-05T07:22:36.283Z,968
2018-05-05T07:22:56.453Z,968
2018-05-05T07:23:16.639Z,972
2018-05-05T07:23:36.846Z,968
2018-05-05T07:23:57.019Z,972
2018-05-05T07:24:18.783Z,968
2018-05-05T07:24:39.042Z,972
2018-05-05T07:24:59.242Z,972
2018-05-05T07:25:19.426Z,972
2018-05-05T07:25:39.603Z,972
2018-05-05T07:25:59.880Z,968
2018-05-05T07:26:20.684Z,972
2018-05-05T07:26:40.906Z,972
2018-05-05T07:27:01.588Z,972
2018-05-05T07:27:21.785Z,972
2018-05-05T07:27:42.017Z,972
2018-05-05T07:28:03.067Z,972
2018-05-05T07:28:23.231Z,972
2018-05-05T07:28:43.413Z,972
2018-05-05T07:29:03.661Z,972
2018-05-05T07:29:23.854Z,972
2018-05-05T07:29:44.040Z,976
2018-05-05T07:30:04.218Z,972
2018-05-05T07:30:24.479Z,972
2018-05-05T07:30:44.704Z,972
2018-05-05T07:31:04.904Z,972
2018-05-05T07:31:25.081Z,976
2018-05-05T07:31:45.303Z,976
2018-05-05T07:32:05.510Z,976
2018-05-05T07:32:26.325Z,972
2018-05-05T07:32:46.512Z,976
2018-05-05T07:33:06.716Z,976
2018-05-05T07:33:26.958Z,976
2018-05-05T07:33:47.163Z,972
2018-05-05T07:34:07.323Z,980
2018-05-05T07:34:27.530Z,976
2018-05-05T07:34:47.775Z,976
2018-05-05T07:35:07.945Z,976
2018-05-05T07:35:28.150Z,976
2018-05-05T07:35:48.381Z,976
2018-05-05T07:36:09.179Z,976
2018-05-05T07:36:29.387Z,972
2018-05-05T07:36:49.594Z,976
2018-05-05T07:37:09.748Z,980
2018-05-05T07:37:30.556Z,976
2018-05-05T07:37:50.744Z,976
2018-05-05T07:38:10.946Z,980
2018-05-05T07:38:31.142Z,976
2018-05-05T07:38:52.212Z,976
2018-05-05T07:39:12.398Z,980
2018-05-05T07:39:32.576Z,980
2018-05-05T07:39:53.329Z,980
2018-05-05T07:40:13.491Z,976
2018-05-05T07:40:33.685Z,980
2018-05-05T07:40:53.890Z,976
2018-05-05T07:41:15.844Z,980
2018-05-05T07:41:36.028Z,980
2018-05-05T07:41:56.734Z,980
2018-05-05T07:42:16.928Z,980
2018-05-05T07:42:37.147Z,980
2018-05-05T07:42:57.338Z,980
2018-05-05T07:43:17.652Z,980
2018-05-05T07:43:37.817Z,980
2018-05-05T07:43:58.695Z,980
2018-05-05T07:44:19.574Z,984
2018-05-05T07:44:40.722Z,984
2018-05-05T07:45:01.632Z,984
2018-05-05T07:45:21.936Z,984
2018-05-05T07:45:42.123Z,980
2018-05-05T07:46:03.038Z,984
2018-05-05T07:46:23.304Z,984
2018-05-05T07:46:43.484Z,984
2018-05-05T07:47:03.730Z,988
2018-05-05T07:47:23.927Z,992
2018-05-05T07:47:44.153Z,988
2018-05-05T07:48:04.398Z,988
2018-05-05T07:48:24.624Z,988
2018-05-05T07:48:45.836Z,988
2018-05-05T07:49:06.098Z,992
2018-05-05T07:49:26.273Z,988
2018-05-05T07:49:46.649Z,988
2018-05-05T07:50:06.965Z,988
2018-05-05T07:50:27.198Z,980
2018-05-05T07:50:47.392Z,988
2018-05-05T07:51:07.672Z,988
2018-05-05T07:51:27.865Z,988
2018-05-05T07:51:48.046Z,988
2018-05-05T07:52:08.251Z,988
2018-05-05T07:52:28.496Z,992
2018-05-05T07:52:48.716Z,988
2018-05-05T07:53:09.837Z,988
2018-05-05T07:53:30.770Z,988
2018-05-05T07:53:50.963Z,988
2018-05-05T07:54:11.160Z,988
2018-05-05T07:54:31.347Z,988
2018-05-05T07:54:51.540Z,984
2018-05-05T07:55:11.726Z,988
2018-05-05T07:55:31.978Z,984
2018-05-05T07:55:52.396Z,984
2018-05-05T07:56:12.746Z,988
2018-05-05T07:56:34.273Z,984
2018-05-05T07:56:55.360Z,988
2018-05-05T07:57:16.442Z,988
2018-05-05T07:57:37.314Z,988
2018-05-05T07:57:58.427Z,992
2018-05-05T07:58:18.590Z,992
2018-05-05T07:58:39.114Z,992
2018-05-05T07:58:59.348Z,992
2018-05-05T07:59:19.642Z,992
2018-05-05T07:59:39.760Z,992
2018-05-05T08:00:00.053Z,992
2018-05-05T08:00:21.499Z,988
2018-05-05T08:00:42.339Z,984
2018-05-05T08:01:02.551Z,984
2018-05-05T08:01:22.843Z,984
2018-05-05T08:01:43.117Z,988
2018-05-05T08:02:03.467Z,992
2018-05-05T08:02:23.773Z,988
2018-05-05T08:02:43.990Z,992
2018-05-05T08:03:04.212Z,992
2018-05-05T08:03:24.936Z,992
2018-05-05T08:03:45.147Z,992
2018-05-05T08:04:05.612Z,992
2018-05-05T08:04:25.850Z,988
2018-05-05T08:04:46.714Z,988
2018-05-05T08:05:07.958Z,988
2018-05-05T08:05:28.833Z,988
2018-05-05T08:05:49.080Z,988
2018-05-05T08:06:09.940Z,988
2018-05-05T08:06:30.153Z,992
2018-05-05T08:06:50.440Z,988
2018-05-05T08:07:10.641Z,992
2018-05-05T08:07:30.818Z,988
2018-05-05T08:07:50.984Z,988
2018-05-05T08:08:11.225Z,992
2018-05-05T08:08:32.272Z,992
2018-05-05T08:08:52.513Z,992
2018-05-05T08:09:12.755Z,992
2018-05-05T08:09:33.844Z,992
2018-05-05T08:09:54.067Z,992
2018-05-05T08:10:14.252Z,992
2018-05-05T08:10:34.458Z,992
2018-05-05T08:10:54.693Z,992
2018-05-05T08:11:15.101Z,988
2018-05-05T08:11:35.289Z,988
2018-05-05T08:11:55.533Z,988
2018-05-05T08:12:15.713Z,988
2018-05-05T08:12:37.869Z,988
2018-05-05T08:12:58.088Z,988
2018-05-05T08:13:18.281Z,988
2018-05-05T08:13:38.470Z,984
2018-05-05T08:13:58.678Z,984
2018-05-05T08:14:19.391Z,984
2018-05-05T08:14:39.623Z,984
2018-05-05T08:14:59.878Z,984
2018-05-05T08:15:20.097Z,984
2018-05-05T08:15:40.868Z,984
2018-05-05T08:16:01.069Z,984
2018-05-05T08:16:21.318Z,984
2018-05-05T08:16:41.525Z,988
2018-05-05T08:17:02.311Z,984
2018-05-05T08:17:22.498Z,988
2018-05-05T08:17:42.699Z,984
2018-05-05T08:18:02.942Z,988
2018-05-05T08:18:23.123Z,984
2018-05-05T08:18:43.471Z,984
2018-05-05T08:19:04.413Z,984
2018-05-05T08:19:25.876Z,984
2018-05-05T08:19:46.869Z,988
2018-05-05T08:20:08.390Z,984
2018-05-05T08:20:28.605Z,988
2018-05-05T08:20:49.358Z,988
2018-05-05T08:21:10.474Z,984
2018-05-05T08:21:30.708Z,984
2018-05-05T08:21:50.938Z,984
2018-05-05T08:22:11.218Z,984
2018-05-05T08:22:31.490Z,984
2018-05-05T08:22:52.285Z,984
2018-05-05T08:23:12.438Z,984
2018-05-05T08:23:32.638Z,984
2018-05-05T08:23:52.830Z,984
2018-05-05T08:24:13.104Z,984
2018-05-05T08:24:34.365Z,984
2018-05-05T08:24:54.547Z,984
2018-05-05T08:25:14.837Z,984
2018-05-05T08:25:35.135Z,988
2018-05-05T08:25:55.339Z,988
2018-05-05T08:26:15.536Z,984
2018-05-05T08:26:36.297Z,984
2018-05-05T08:26:56.538Z,984
2018-05-05T08:27:16.818Z,984
2018-05-05T08:27:37.038Z,984
2018-05-05T08:27:57.901Z,984
2018-05-05T08:28:18.093Z,988
2018-05-05T08:28:38.294Z,984
2018-05-05T08:28:58.522Z,984
2018-05-05T08:29:19.191Z,980
2018-05-05T08:29:39.524Z,984
2018-05-05T08:29:59.777Z,984
2018-05-05T08:30:19.999Z,980
2018-05-05T08:30:40.414Z,984
2018-05-05T08:31:00.624Z,988
2018-05-05T08:31:20.839Z,992
2018-05-05T08:31:41.712Z,992
2018-05-05T08:32:01.890Z,1004
2018-05-05T08:32:22.140Z,1000
2018-05-05T08:32:42.339Z,1008
2018-05-05T08:33:02.677Z,1012
2018-05-05T08:33:23.307Z,1012
2018-05-05T08:33:43.622Z,996
2018-05-05T08:34:03.849Z,1000
2018-05-05T08:34:24.203Z,1000
2018-05-05T08:34:45.365Z,996
2018-05-05T08:35:06.394Z,1004
2018-05-05T08:35:27.582Z,1004
2018-05-05T08:35:48.355Z,988
2018-05-05T08:36:08.754Z,992
2018-05-05T08:36:29.043Z,988
2018-05-05T08:36:49.386Z,980
2018-05-05T08:37:09.618Z,984
2018-05-05T08:37:29.867Z,980
2018-05-05T08:37:50.096Z,980
2018-05-05T08:38:10.446Z,980
2018-05-05T08:38:31.629Z,988
2018-05-05T08:38:52.980Z,984
2018-05-05T08:39:14.021Z,984
2018-05-05T08:39:35.949Z,984
2018-05-05T08:39:56.311Z,988
2018-05-05T08:40:17.475Z,984
2018-05-05T08:40:38.740Z,988
2018-05-05T08:40:59.975Z,988
2018-05-05T08:41:20.282Z,988
2018-05-05T08:41:41.735Z,984
2018-05-05T08:42:02.049Z,984
2018-05-05T08:42:22.725Z,984
2018-05-05T08:42:44.159Z,984
2018-05-05T08:43:05.478Z,984
2018-05-05T08:43:27.204Z,984
2018-05-05T08:43:48.986Z,984
2018-05-05T08:44:09.839Z,976
2018-05-05T08:44:30.867Z,984
2018-05-05T08:44:51.083Z,984
2018-05-05T08:45:11.935Z,988
2018-05-05T08:45:32.193Z,988
2018-05-05T08:45:52.490Z,984
2018-05-05T08:46:12.755Z,988
2018-05-05T08:46:33.375Z,984
2018-05-05T08:46:53.636Z,984
2018-05-05T08:47:13.960Z,988
2018-05-05T08:47:35.482Z,984
2018-05-05T08:47:56.338Z,984
2018-05-05T08:48:16.588Z,984
2018-05-05T08:48:36.811Z,984
2018-05-05T08:48:57.119Z,984
2018-05-05T08:49:17.391Z,984
2018-05-05T08:49:37.669Z,980
2018-05-05T08:49:59.009Z,980
2018-05-05T08:50:19.278Z,984
2018-05-05T08:50:39.522Z,980
2018-05-05T08:51:00.769Z,980
2018-05-05T08:51:21.078Z,984
2018-05-05T08:51:41.306Z,980
2018-05-05T08:52:02.437Z,984
2018-05-05T08:52:22.747Z,980
2018-05-05T08:52:42.989Z,984
2018-05-05T08:53:03.217Z,984
2018-05-05T08:53:24.985Z,984
2018-05-05T08:53:47.072Z,984
2018-05-05T08:54:09.284Z,984
2018-05-05T08:54:29.783Z,988
2018-05-05T08:54:49.991Z,988
2018-05-05T08:55:10.744Z,988
2018-05-05T08:55:32.409Z,988
2018-05-05T08:55:52.700Z,988
2018-05-05T08:56:13.023Z,984
2018-05-05T08:56:33.377Z,984
2018-05-05T08:56:54.357Z,984
2018-05-05T08:57:14.546Z,984
2018-05-05T08:57:34.910Z,984
2018-05-05T08:57:55.103Z,984
2018-05-05T08:58:16.255Z,988
2018-05-05T08:58:36.543Z,984
2018-05-05T08:58:56.847Z,988
2018-05-05T08:59:17.963Z,984
2018-05-05T08:59:39.492Z,984
2018-05-05T08:59:59.831Z,984
2018-05-05T09:00:20.379Z,980
2018-05-05T09:00:40.791Z,984
2018-05-05T09:01:01.090Z,984
2018-05-05T09:01:21.525Z,988
2018-05-05T09:01:42.180Z,988
2018-05-05T09:02:02.476Z,996
2018-05-05T09:02:23.392Z,992
2018-05-05T09:02:43.696Z,996
2018-05-05T09:03:04.432Z,996
2018-05-05T09:03:25.616Z,992
2018-05-05T09:03:46.081Z,992
2018-05-05T09:04:06.675Z,1000
2018-05-05T09:04:26.876Z,996
2018-05-05T09:04:47.778Z,1000
2018-05-05T09:05:09.097Z,992
2018-05-05T09:05:29.598Z,996
2018-05-05T09:05:50.126Z,992
2018-05-05T09:06:11.297Z,996
2018-05-05T09:06:31.851Z,996
2018-05-05T09:06:52.231Z,996
2018-05-05T09:07:12.534Z,1000
2018-05-05T09:07:33.591Z,1000
2018-05-05T09:07:53.946Z,996
2018-05-05T09:08:14.510Z,1000
2018-05-05T09:08:34.895Z,996
2018-05-05T09:08:55.996Z,996
2018-05-05T09:09:16.582Z,996
2018-05-05T09:09:37.143Z,996
2018-05-05T09:09:57.427Z,1000
2018-05-05T09:10:17.711Z,1000
2018-05-05T09:10:38.473Z,996
2018-05-05T09:10:58.824Z,1000
2018-05-05T09:11:19.499Z,996
2018-05-05T09:11:40.499Z,996
2018-05-05T09:12:01.602Z,996
2018-05-05T09:12:21.932Z,996
2018-05-05T09:12:42.436Z,996
2018-05-05T09:13:03.428Z,992
2018-05-05T09:13:24.506Z,996
2018-05-05T09:13:45.877Z,996
2018-05-05T09:14:06.324Z,996
2018-05-05T09:14:26.465Z,992
2018-05-05T09:14:46.844Z,996
2018-05-05T09:15:07.409Z,996
2018-05-05T09:15:27.756Z,996
2018-05-05T09:15:48.945Z,996
2018-05-05T09:16:09.968Z,996
2018-05-05T09:16:30.271Z,1000
2018-05-05T09:16:50.618Z,992
2018-05-05T09:17:12.413Z,992
2018-05-05T09:17:32.666Z,992
2018-05-05T09:17:54.551Z,992
2018-05-05T09:18:15.385Z,992
2018-05-05T09:18:36.299Z,988
2018-05-05T09:18:56.800Z,988
2018-05-05T09:19:17.221Z,992
2018-05-05T09:19:38.476Z,992
2018-05-05T09:19:58.789Z,988
2018-05-05T09:20:19.137Z,988
2018-05-05T09:20:41.506Z,988
2018-05-05T09:21:02.739Z,988
2018-05-05T09:21:23.410Z,988
2018-05-05T09:21:44.136Z,984
2018-05-05T09:22:04.421Z,976
2018-05-05T09:22:24.628Z,980
2018-05-05T09:22:44.917Z,988
2018-05-05T09:23:05.836Z,984
2018-05-05T09:23:26.045Z,984
2018-05-05T09:23:46.270Z,984
2018-05-05T09:24:06.460Z,984
2018-05-05T09:24:26.633Z,984
2018-05-05T09:24:46.855Z,984
2018-05-05T09:25:07.954Z,980
2018-05-05T09:25:28.908Z,976
2018-05-05T09:25:49.109Z,984
2018-05-05T09:26:09.414Z,984
2018-05-05T09:26:29.653Z,980
2018-05-05T09:26:49.915Z,980
2018-05-05T09:27:10.176Z,980
2018-05-05T09:27:30.403Z,984
2018-05-05T09:27:51.458Z,988
2018-05-05T09:28:11.696Z,988
2018-05-05T09:28:31.862Z,988
2018-05-05T09:28:52.096Z,980
2018-05-05T09:29:12.354Z,984
2018-05-05T09:29:33.434Z,984
2018-05-05T09:29:54.040Z,988
2018-05-05T09:30:14.428Z,984
2018-05-05T09:30:34.731Z,988
2018-05-05T09:30:56.514Z,988
2018-05-05T09:31:16.746Z,988
2018-05-05T09:31:36.981Z,988
2018-05-05T09:31:57.196Z,988
2018-05-05T09:32:17.410Z,992
2018-05-05T09:32:37.583Z,992
2018-05-05T09:32:58.242Z,992
2018-05-05T09:33:18.522Z,996
2018-05-05T09:33:38.758Z,996
2018-05-05T09:34:00.112Z,996
2018-05-05T09:34:21.433Z,992
2018-05-05T09:34:41.743Z,992
2018-05-05T09:35:02.012Z,988
2018-05-05T09:35:22.187Z,992
2018-05-05T09:35:42.348Z,984
2018-05-05T09:36:03.299Z,992
2018-05-05T09:36:24.392Z,996
2018-05-05T09:36:44.648Z,992
2018-05-05T09:37:05.044Z,992
2018-05-05T09:37:25.916Z,992
2018-05-05T09:37:46.139Z,984
2018-05-05T09:38:07.265Z,992
2018-05-05T09:38:27.948Z,984
2018-05-05T09:38:48.295Z,988
2018-05-05T09:39:08.477Z,988
2018-05-05T09:39:29.352Z,992